M.t. King Everest — V7DB8 — position and weather

sailwx.info

Track history (hours):
 
Tides and Currents Weather Stations Pressure Air Temp Water Temp Dewpoint Dewpoint Depression Visibility Wind Speed Wind Dir Waves Ship Positions

M.t. King Everest

Last reported at 2016-May-17 12:33 UTC. Time now 2016-May-25 05:19 UTC.
Position N 38°52' W 074°08'.

Length 181 m; draft 7 m.

Type: Ship. MMSI: 538090267.

Date/timePositionNaut miles runAvg speedWind from/ knotsBaromVisibWave heightAir tempDewpointWater temp
2016-May-17 12:33N 38°52' W 074°08'1413.9
2016-May-17 11:34N 38°48' W 074°24'1413.6
2016-May-17 10:34N 38°46' W 074°41'1313.3
2016-May-17 09:34N 38°46' W 074°58'9 9.1
2016-May-17 08:32N 38°54' W 075°05'1111.7
2016-May-17 07:34N 39°04' W 075°11'1413.6
2016-May-17 06:33N 39°16' W 075°20'1514.7
2016-May-17 05:33N 39°27' W 075°33'1313.1
2016-May-17 04:33N 39°40' W 075°32'1212.2
2016-May-17 03:34N 39°50' W 075°23'1010.0
2016-May-17 02:33N 39°53' W 075°10'7 7.0
2016-May-17 01:33N 39°59' W 075°05'0 0.4
2016-May-17 00:28N 39°59' W 075°04'0 0.0
2016-May-16 23:31N 39°59' W 075°04'0 0.0
2016-May-16 22:31N 39°59' W 075°04'0 0.0
2016-May-16 21:31N 39°59' W 075°04'0 0.0
2016-May-16 20:31N 39°59' W 075°04'0 0.0
2016-May-16 19:31N 39°59' W 075°04'0 0.0
2016-May-16 18:31N 39°59' W 075°04'0 0.0
2016-May-16 17:31N 39°59' W 075°04'0 0.0
2016-May-16 16:31N 39°59' W 075°04'0 0.0
2016-May-16 15:31N 39°59' W 075°04'0 0.0
2016-May-16 14:31N 39°59' W 075°04'0 0.0
2016-May-16 13:31N 39°59' W 075°04'0 0.0
2016-May-16 12:31N 39°59' W 075°04'0 0.0
2016-May-16 11:31N 39°59' W 075°04'0 0.0
2016-May-16 10:31N 39°59' W 075°04'0 0.0
2016-May-16 09:31N 39°59' W 075°04'0 0.0
2016-May-16 08:31N 39°59' W 075°04'0 0.0
2016-May-16 07:31N 39°59' W 075°04'0 0.0
2016-May-16 06:31N 39°59' W 075°04'0 0.0
2016-May-16 05:31N 39°59' W 075°04'0 0.0
2016-May-16 04:31N 39°59' W 075°04'0 0.0
2016-May-16 03:31N 39°59' W 075°04'0 0.0
2016-May-16 02:28N 39°59' W 075°04'0 0.0
2016-May-16 01:31N 39°59' W 075°04'0 0.0
2016-May-16 00:28N 39°59' W 075°04'0 0.0
2016-May-15 23:31N 39°59' W 075°04'0 0.0
2016-May-15 22:31N 39°59' W 075°04'0 0.0
2016-May-15 21:31N 39°59' W 075°04'0 0.0
2016-May-15 20:28N 39°59' W 075°04'0 0.0
2016-May-15 19:28N 39°59' W 075°04'0 0.0
2016-May-15 18:31N 39°59' W 075°04'0 0.0
2016-May-15 17:28N 39°59' W 075°04'0 0.0
2016-May-15 16:32N 39°59' W 075°04'0 0.0
2016-May-15 15:31N 39°59' W 075°04'0 0.0
2016-May-15 14:31N 39°59' W 075°04'0 0.0
2016-May-15 13:31N 39°59' W 075°04'0 0.0
2016-May-15 12:31N 39°59' W 075°04'0 0.0
2016-May-15 11:28N 39°59' W 075°04'0 0.0
2016-May-15 10:25N 39°59' W 075°04'0 0.0
2016-May-15 09:31N 39°59' W 075°04'0 0.0
2016-May-15 08:31N 39°59' W 075°04'0 0.0
2016-May-15 07:31N 39°59' W 075°04'0 0.0
2016-May-15 06:31N 39°59' W 075°04'0 0.0
2016-May-15 05:31N 39°59' W 075°04'0 0.0
2016-May-15 04:31N 39°59' W 075°04'0 0.0
2016-May-15 03:31N 39°59' W 075°04'1 1.4
2016-May-15 02:33N 39°58' W 075°06'6 5.9
2016-May-15 01:33N 39°53' W 075°09'8 7.8
2016-May-15 00:33N 39°51' W 075°19'8 8.5
2016-May-14 23:34N 39°46' W 075°28'1010.4
2016-May-14 22:33N 39°37' W 075°35'1111.4
2016-May-14 21:33N 39°26' W 075°32'1212.3
2016-May-14 20:33N 39°17' W 075°22'1212.1
2016-May-14 19:33N 39°07' W 075°13'1212.2
2016-May-14 18:33N 38°56' W 075°06'32 5.3
2016-May-14 12:28N 38°50' W 074°26'0 0.3
2016-May-14 11:24N 38°50' W 074°26'2 1.5
2016-May-14 10:12N 38°51' W 074°27'3 4.3
2016-May-14 09:27N 38°49' W 074°29'1112.1
2016-May-14 08:33N 38°50' W 074°15'1212.3
2016-May-14 07:33N 38°52' W 073°60'1212.4
2016-May-14 06:33N 38°53' W 073°44'1211.9
2016-May-14 05:33N 39°01' W 073°32'1312.4
2016-May-14 04:32N 39°04' W 073°16'  
2016-May-09 05:21N 46°10' W 072°56'1012.8
2016-May-09 04:33N 46°03' W 073°08'1313.5
2016-May-09 03:34N 45°51' W 073°16'  
Track history (hours):
 
Tides and Currents Weather Stations Pressure Air Temp Water Temp Dewpoint Dewpoint Depression Visibility Wind Speed Wind Dir Waves Ship Positions

M.t. King Everest

Last reported at 2016-May-17 12:33 UTC. Time now 2016-May-25 05:19 UTC.
Position N 38°52' W 074°08'.

Length 181 m; draft 7 m.

Type: Ship. MMSI: 538090267.

Date/timePositionNaut miles runAvg speedWind from/ knotsBaromVisibWave heightAir tempDewpointWater temp
2016-May-17 12:33N 38°52' W 074°08'1413.9
2016-May-17 11:34N 38°48' W 074°24'1413.6
2016-May-17 10:34N 38°46' W 074°41'1313.3
2016-May-17 09:34N 38°46' W 074°58'9 9.1
2016-May-17 08:32N 38°54' W 075°05'1111.7
2016-May-17 07:34N 39°04' W 075°11'1413.6
2016-May-17 06:33N 39°16' W 075°20'1514.7
2016-May-17 05:33N 39°27' W 075°33'1313.1
2016-May-17 04:33N 39°40' W 075°32'1212.2
2016-May-17 03:34N 39°50' W 075°23'1010.0
2016-May-17 02:33N 39°53' W 075°10'7 7.0
2016-May-17 01:33N 39°59' W 075°05'0 0.4
2016-May-17 00:28N 39°59' W 075°04'0 0.0
2016-May-16 23:31N 39°59' W 075°04'0 0.0
2016-May-16 22:31N 39°59' W 075°04'0 0.0
2016-May-16 21:31N 39°59' W 075°04'0 0.0
2016-May-16 20:31N 39°59' W 075°04'0 0.0
2016-May-16 19:31N 39°59' W 075°04'0 0.0
2016-May-16 18:31N 39°59' W 075°04'0 0.0
2016-May-16 17:31N 39°59' W 075°04'0 0.0
2016-May-16 16:31N 39°59' W 075°04'0 0.0
2016-May-16 15:31N 39°59' W 075°04'0 0.0
2016-May-16 14:31N 39°59' W 075°04'0 0.0
2016-May-16 13:31N 39°59' W 075°04'0 0.0
2016-May-16 12:31N 39°59' W 075°04'0 0.0
2016-May-16 11:31N 39°59' W 075°04'0 0.0
2016-May-16 10:31N 39°59' W 075°04'0 0.0
2016-May-16 09:31N 39°59' W 075°04'0 0.0
2016-May-16 08:31N 39°59' W 075°04'0 0.0
2016-May-16 07:31N 39°59' W 075°04'0 0.0
2016-May-16 06:31N 39°59' W 075°04'0 0.0
2016-May-16 05:31N 39°59' W 075°04'0 0.0
2016-May-16 04:31N 39°59' W 075°04'0 0.0
2016-May-16 03:31N 39°59' W 075°04'0 0.0
2016-May-16 02:28N 39°59' W 075°04'0 0.0
2016-May-16 01:31N 39°59' W 075°04'0 0.0
2016-May-16 00:28N 39°59' W 075°04'0 0.0
2016-May-15 23:31N 39°59' W 075°04'0 0.0
2016-May-15 22:31N 39°59' W 075°04'0 0.0
2016-May-15 21:31N 39°59' W 075°04'0 0.0
2016-May-15 20:28N 39°59' W 075°04'0 0.0
2016-May-15 19:28N 39°59' W 075°04'0 0.0
2016-May-15 18:31N 39°59' W 075°04'0 0.0
2016-May-15 17:28N 39°59' W 075°04'0 0.0
2016-May-15 16:32N 39°59' W 075°04'0 0.0
2016-May-15 15:31N 39°59' W 075°04'0 0.0
2016-May-15 14:31N 39°59' W 075°04'0 0.0
2016-May-15 13:31N 39°59' W 075°04'0 0.0
2016-May-15 12:31N 39°59' W 075°04'0 0.0
2016-May-15 11:28N 39°59' W 075°04'0 0.0
2016-May-15 10:25N 39°59' W 075°04'0 0.0
2016-May-15 09:31N 39°59' W 075°04'0 0.0
2016-May-15 08:31N 39°59' W 075°04'0 0.0
2016-May-15 07:31N 39°59' W 075°04'0 0.0
2016-May-15 06:31N 39°59' W 075°04'0 0.0
2016-May-15 05:31N 39°59' W 075°04'0 0.0
2016-May-15 04:31N 39°59' W 075°04'0 0.0
2016-May-15 03:31N 39°59' W 075°04'1 1.4
2016-May-15 02:33N 39°58' W 075°06'6 5.9
2016-May-15 01:33N 39°53' W 075°09'8 7.8
2016-May-15 00:33N 39°51' W 075°19'8 8.5
2016-May-14 23:34N 39°46' W 075°28'1010.4
2016-May-14 22:33N 39°37' W 075°35'1111.4
2016-May-14 21:33N 39°26' W 075°32'1212.3
2016-May-14 20:33N 39°17' W 075°22'1212.1
2016-May-14 19:33N 39°07' W 075°13'1212.2
2016-May-14 18:33N 38°56' W 075°06'32 5.3
2016-May-14 12:28N 38°50' W 074°26'0 0.3
2016-May-14 11:24N 38°50' W 074°26'2 1.5
2016-May-14 10:12N 38°51' W 074°27'3 4.3
2016-May-14 09:27N 38°49' W 074°29'1112.1
2016-May-14 08:33N 38°50' W 074°15'1212.3
2016-May-14 07:33N 38°52' W 073°60'1212.4
2016-May-14 06:33N 38°53' W 073°44'1211.9
2016-May-14 05:33N 39°01' W 073°32'1312.4
2016-May-14 04:32N 39°04' W 073°16'  
2016-May-09 05:21N 46°10' W 072°56'1012.8
2016-May-09 04:33N 46°03' W 073°08'1313.5
2016-May-09 03:34N 45°51' W 073°16'  

Dump ship's entire track history